createdAt,value
2022-10-11T00:01:15.072Z,7.60
2022-10-11T00:04:00.624Z,6.63
2022-10-11T00:06:47.319Z,4.18
2022-10-11T00:09:32.600Z,5.13
2022-10-11T00:12:17.935Z,5.88
2022-10-11T00:15:05.872Z,5.85
2022-10-11T00:17:51.381Z,5.47
2022-10-11T00:20:37.022Z,4.63
2022-10-11T00:23:22.474Z,5.10
2022-10-11T00:26:11.638Z,5.57
2022-10-11T00:28:57.186Z,4.15
2022-10-11T00:31:42.659Z,4.47
2022-10-11T00:34:28.248Z,10.02
2022-10-11T00:37:13.955Z,7.78
2022-10-11T00:39:59.504Z,4.97
2022-10-11T00:42:44.905Z,5.82
2022-10-11T00:45:30.033Z,7.28
2022-10-11T00:48:27.529Z,6.47
2022-10-11T00:51:36.118Z,6.00
2022-10-11T00:54:25.409Z,5.28
2022-10-11T00:57:14.033Z,4.57
2022-10-11T01:00:00.402Z,8.85
2022-10-11T01:02:46.367Z,7.32
2022-10-11T01:05:32.289Z,4.95
2022-10-11T01:08:18.231Z,7.25
2022-10-11T01:11:04.335Z,8.93
2022-10-11T01:14:11.088Z,5.47
2022-10-11T01:17:07.253Z,6.95
2022-10-11T01:20:04.481Z,6.57
2022-10-11T01:23:18.276Z,6.90
2022-10-11T01:26:21.745Z,6.70
2022-10-11T01:29:25.599Z,6.10
2022-10-11T01:32:22.328Z,7.30
2022-10-11T01:35:26.907Z,5.47
2022-10-11T01:38:18.314Z,3.97
2022-10-11T01:41:15.524Z,4.75
2022-10-11T01:44:02.482Z,6.63
2022-10-11T01:46:48.180Z,4.18
2022-10-11T01:49:33.694Z,6.38
2022-10-11T01:52:19.313Z,7.78
2022-10-11T01:55:21.707Z,5.85
2022-10-11T01:58:19.314Z,6.38
2022-10-11T02:01:26.790Z,7.20
2022-10-11T02:04:29.372Z,5.30
2022-10-11T02:07:45.478Z,4.00
2022-10-11T02:10:36.358Z,5.10
2022-10-11T02:13:46.124Z,4.53
2022-10-11T02:16:43.606Z,7.75
2022-10-11T02:19:33.416Z,3.95
2022-10-11T02:22:28.427Z,5.60
2022-10-11T02:25:20.126Z,4.97
2022-10-11T02:28:11.574Z,5.07
2022-10-11T02:30:59.556Z,4.22
2022-10-11T02:34:02.611Z,4.50
2022-10-11T02:36:48.094Z,4.47
2022-10-11T02:39:55.241Z,4.70
2022-10-11T02:42:46.965Z,4.85
2022-10-11T02:45:42.210Z,5.63
2022-10-11T02:48:29.397Z,6.43
2022-10-11T02:51:14.876Z,5.25
2022-10-11T02:54:00.394Z,4.53
2022-10-11T02:56:45.841Z,3.92
2022-10-11T02:59:31.082Z,5.18
2022-10-11T03:02:16.632Z,6.13
2022-10-11T03:05:02.223Z,11.10
2022-10-11T03:07:47.491Z,6.40
2022-10-11T03:10:33.970Z,4.82
2022-10-11T03:13:19.436Z,6.78
2022-10-11T03:16:05.135Z,5.53
2022-10-11T03:18:50.724Z,5.15
2022-10-11T03:21:36.655Z,10.75
2022-10-11T03:24:21.972Z,8.10
2022-10-11T03:27:07.467Z,7.10
2022-10-11T03:29:52.847Z,5.63
2022-10-11T03:32:38.635Z,6.72
2022-10-11T03:35:24.002Z,6.88
2022-10-11T03:38:13.092Z,6.93
2022-10-11T03:40:58.673Z,4.85
2022-10-11T03:43:44.534Z,7.65
2022-10-11T03:46:30.060Z,3.60
2022-10-11T03:49:15.617Z,4.82
2022-10-11T03:52:01.520Z,7.07
2022-10-11T03:54:46.825Z,4.60
2022-10-11T03:57:32.594Z,6.32
2022-10-11T04:00:18.397Z,8.75
2022-10-11T04:03:04.006Z,6.03
2022-10-11T04:05:49.585Z,6.60
2022-10-11T04:08:35.212Z,5.20
2022-10-11T04:11:20.564Z,4.15
2022-10-11T04:14:06.169Z,7.05
2022-10-11T04:16:51.625Z,4.80
2022-10-11T04:19:37.500Z,5.40
2022-10-11T04:22:22.712Z,5.90
2022-10-11T04:25:09.226Z,10.90
2022-10-11T04:27:54.920Z,4.43
2022-10-11T04:30:40.443Z,5.93
2022-10-11T04:33:26.129Z,5.40
2022-10-11T04:36:11.515Z,6.50
2022-10-11T04:38:56.949Z,7.78
2022-10-11T04:41:42.552Z,7.03
2022-10-11T04:44:28.320Z,3.58
2022-10-11T04:47:13.900Z,5.57
2022-10-11T04:49:59.064Z,4.22
2022-10-11T04:52:44.505Z,8.80
2022-10-11T04:55:29.933Z,12.20
2022-10-11T04:58:15.551Z,7.25
2022-10-11T05:01:01.372Z,6.28
2022-10-11T05:03:46.536Z,5.97
2022-10-11T05:06:32.159Z,7.88
2022-10-11T05:09:17.481Z,5.25
2022-10-11T05:12:03.194Z,7.38
2022-10-11T05:14:48.576Z,9.43
2022-10-11T05:17:34.180Z,7.00
2022-10-11T05:20:19.393Z,7.50
2022-10-11T05:23:04.852Z,4.28
2022-10-11T05:25:50.297Z,7.80
2022-10-11T05:28:36.128Z,6.93
2022-10-11T05:31:21.898Z,8.13
2022-10-11T05:34:07.594Z,4.82
2022-10-11T05:36:52.675Z,6.45
2022-10-11T05:39:38.208Z,7.18
2022-10-11T05:42:23.762Z,4.82
2022-10-11T05:45:09.656Z,9.40
2022-10-11T05:47:55.190Z,7.25
2022-10-11T05:50:40.504Z,5.47
2022-10-11T05:53:26.442Z,7.47
2022-10-11T05:56:24.234Z,8.05
2022-10-11T05:59:09.833Z,7.13
2022-10-11T06:01:55.520Z,6.95
2022-10-11T06:04:40.939Z,7.50
2022-10-11T06:07:26.557Z,7.97
2022-10-11T06:10:12.741Z,6.60
2022-10-11T06:12:58.866Z,7.75
2022-10-11T06:15:44.518Z,8.50
2022-10-11T06:18:31.033Z,8.65
2022-10-11T06:21:16.593Z,7.53
2022-10-11T06:24:02.642Z,8.48
2022-10-11T06:26:49.627Z,9.23
2022-10-11T06:29:35.819Z,8.38
2022-10-11T06:32:21.348Z,17.42
2022-10-11T06:35:07.545Z,7.45
2022-10-11T06:37:52.949Z,8.88
2022-10-11T06:40:38.705Z,10.60
2022-10-11T06:43:25.328Z,5.55
2022-10-11T06:46:11.114Z,11.35
2022-10-11T06:48:56.734Z,10.68
2022-10-11T06:51:41.919Z,9.38
2022-10-11T06:54:27.505Z,6.82
2022-10-11T06:57:13.151Z,6.72
2022-10-11T06:59:58.327Z,9.50
2022-10-11T07:02:43.829Z,7.13
2022-10-11T07:05:31.747Z,7.55
2022-10-11T07:08:17.296Z,8.07
2022-10-11T07:11:14.272Z,8.50
2022-10-11T07:14:04.429Z,7.88
2022-10-11T07:16:49.614Z,5.35
2022-10-11T07:19:35.419Z,8.93
2022-10-11T07:22:20.733Z,8.32
2022-10-11T07:25:06.854Z,8.15
2022-10-11T07:27:52.389Z,8.07
2022-10-11T07:30:42.175Z,9.75
2022-10-11T07:33:27.596Z,10.95
2022-10-11T07:36:13.619Z,6.93
2022-10-11T07:38:59.092Z,4.80
2022-10-11T07:41:46.087Z,8.52
2022-10-11T07:44:32.046Z,7.63
2022-10-11T07:47:17.363Z,9.15
2022-10-11T07:50:02.998Z,4.63
2022-10-11T07:52:48.249Z,6.25
2022-10-11T07:55:40.261Z,5.47
2022-10-11T07:58:25.864Z,4.68
2022-10-11T08:01:12.090Z,6.32
2022-10-11T08:03:57.813Z,5.05
2022-10-11T08:06:43.414Z,6.70
2022-10-11T08:09:29.112Z,8.23
2022-10-11T08:12:14.782Z,5.25
2022-10-11T08:15:00.925Z,8.73
2022-10-11T08:17:47.238Z,6.68
2022-10-11T08:20:33.181Z,7.63
2022-10-11T08:23:19.148Z,5.68
2022-10-11T08:26:04.711Z,6.70
2022-10-11T08:28:50.466Z,8.05
2022-10-11T08:31:35.954Z,6.85
2022-10-11T08:34:21.510Z,4.57
2022-10-11T08:37:07.193Z,6.72
2022-10-11T08:39:52.652Z,7.75
2022-10-11T08:43:06.682Z,7.75
2022-10-11T08:45:56.038Z,8.63
2022-10-11T08:48:46.941Z,8.00
2022-10-11T08:51:41.916Z,6.50
2022-10-11T08:54:35.103Z,6.90
2022-10-11T08:57:22.800Z,6.85
2022-10-11T09:00:14.514Z,10.00
2022-10-11T09:03:21.681Z,7.10
2022-10-11T09:06:40.858Z,7.93
2022-10-11T09:09:26.707Z,13.77
2022-10-11T09:13:10.823Z,12.23
2022-10-11T09:16:28.647Z,7.78
2022-10-11T09:19:20.164Z,9.32
2022-10-11T09:23:02.502Z,16.67
2022-10-11T09:26:23.140Z,8.80
2022-10-11T09:29:27.211Z,7.20
2022-10-11T09:32:20.902Z,9.37
2022-10-11T09:35:18.866Z,9.52
2022-10-11T09:38:28.952Z,13.73
2022-10-11T09:41:35.233Z,14.85
2022-10-11T09:44:25.110Z,10.32
2022-10-11T09:47:16.379Z,7.80
2022-10-11T09:50:18.774Z,11.00
2022-10-11T09:53:07.952Z,9.05
2022-10-11T09:56:04.135Z,8.35
2022-10-11T09:59:05.824Z,6.95
2022-10-11T10:02:16.662Z,8.48
2022-10-11T10:05:11.050Z,9.45
2022-10-11T10:08:20.284Z,7.30
2022-10-11T10:11:07.626Z,13.02
2022-10-11T10:13:56.070Z,11.43
2022-10-11T10:16:41.571Z,8.50
2022-10-11T10:19:26.994Z,8.13
2022-10-11T10:22:27.298Z,12.35
2022-10-11T10:25:29.899Z,8.70
2022-10-11T10:28:22.724Z,14.32
2022-10-11T10:31:22.443Z,7.32
2022-10-11T10:34:33.266Z,6.60
2022-10-11T10:37:29.241Z,10.20
2022-10-11T10:40:22.503Z,13.00
2022-10-11T10:43:15.638Z,8.93
2022-10-11T10:46:22.304Z,9.82
2022-10-11T10:49:52.564Z,10.25
2022-10-11T10:52:40.231Z,8.05
2022-10-11T10:55:45.067Z,7.82
2022-10-11T10:58:50.975Z,11.27
2022-10-11T11:01:50.170Z,8.90
2022-10-11T11:04:36.459Z,10.68
2022-10-11T11:07:45.937Z,8.18
2022-10-11T11:10:42.448Z,11.20
2022-10-11T11:13:30.692Z,11.05
2022-10-11T11:16:31.395Z,9.18
2022-10-11T11:19:38.543Z,8.75
2022-10-11T11:22:52.075Z,9.60
2022-10-11T11:25:44.652Z,10.95
2022-10-11T11:28:36.418Z,5.78
2022-10-11T11:31:53.858Z,10.60
2022-10-11T11:34:44.331Z,7.55
2022-10-11T11:37:37.268Z,7.75
2022-10-11T11:40:35.307Z,9.82
2022-10-11T11:43:32.702Z,10.25
2022-10-11T11:46:23.346Z,13.32
2022-10-11T11:49:18.111Z,10.07
2022-10-11T11:52:06.781Z,11.82
2022-10-11T11:55:03.779Z,8.88
2022-10-11T11:58:16.466Z,10.70
2022-10-11T12:01:15.832Z,9.50
2022-10-11T12:04:36.053Z,6.25
2022-10-11T12:07:24.055Z,7.57
2022-10-11T12:10:27.074Z,8.00
2022-10-11T12:13:34.834Z,10.32
2022-10-11T12:16:21.976Z,11.02
2022-10-11T12:19:14.335Z,10.77
2022-10-11T12:22:18.289Z,7.53
2022-10-11T12:25:11.218Z,9.77
2022-10-11T12:28:02.545Z,8.30
2022-10-11T12:30:48.018Z,10.82
2022-10-11T12:33:33.350Z,8.30
2022-10-11T12:36:28.740Z,12.65
2022-10-11T12:39:20.312Z,10.73
2022-10-11T12:42:24.692Z,7.80
2022-10-11T12:48:17.505Z,13.27
2022-10-11T12:51:03.714Z,7.45
2022-10-11T12:54:25.407Z,10.02
2022-10-11T12:57:11.879Z,8.93
2022-10-11T13:00:17.771Z,9.55
2022-10-11T13:03:26.208Z,9.10
2022-10-11T13:06:26.981Z,9.95
2022-10-11T13:09:25.785Z,10.80
2022-10-11T13:12:18.010Z,10.30
2022-10-11T13:15:09.767Z,10.85
2022-10-11T13:18:00.503Z,9.13
2022-10-11T13:20:47.315Z,9.05
2022-10-11T13:23:38.600Z,11.45
2022-10-11T13:26:26.258Z,11.63
2022-10-11T13:29:16.992Z,13.20
2022-10-11T13:32:11.659Z,8.25
2022-10-11T13:35:02.808Z,10.60
2022-10-11T13:37:49.554Z,9.10
2022-10-11T13:40:37.469Z,24.38
2022-10-11T13:43:27.376Z,12.40
2022-10-11T13:46:22.318Z,10.85
2022-10-11T13:49:37.577Z,10.80
2022-10-11T13:52:24.660Z,9.70
2022-10-11T13:55:21.892Z,8.90
2022-10-11T13:58:18.903Z,8.85
2022-10-11T14:01:20.068Z,8.73
2022-10-11T14:04:08.881Z,14.15
2022-10-11T14:06:59.357Z,8.43
2022-10-11T14:09:47.115Z,9.02
2022-10-11T14:12:44.388Z,13.10
2022-10-11T14:15:38.055Z,13.57
2022-10-11T14:18:42.871Z,8.48
2022-10-11T14:21:34.718Z,8.80
2022-10-11T14:24:21.042Z,8.43
2022-10-11T14:27:10.260Z,11.05
2022-10-11T14:30:23.458Z,8.88
2022-10-11T14:33:02.656Z,7.80
2022-10-11T14:35:48.099Z,12.20
2022-10-11T14:38:33.484Z,13.35
2022-10-11T14:41:19.194Z,15.00
2022-10-11T14:44:04.558Z,13.98
2022-10-11T14:46:53.205Z,10.98
2022-10-11T14:49:40.079Z,6.78
2022-10-11T14:52:25.633Z,8.18
2022-10-11T14:55:11.124Z,6.85
2022-10-11T14:57:57.041Z,8.20
2022-10-11T15:00:42.683Z,8.13
2022-10-11T15:03:28.154Z,8.10
2022-10-11T15:06:24.319Z,11.05
2022-10-11T15:09:10.416Z,13.55
2022-10-11T15:11:56.301Z,10.18
2022-10-11T15:14:41.801Z,9.02
2022-10-11T15:17:27.284Z,9.40
2022-10-11T15:20:30.314Z,8.85
2022-10-11T15:23:15.625Z,9.77
2022-10-11T15:26:01.159Z,9.38
2022-10-11T15:28:46.870Z,11.80
2022-10-11T15:31:32.546Z,10.65
2022-10-11T15:34:17.796Z,8.80
2022-10-11T15:37:03.433Z,10.40
2022-10-11T15:39:49.351Z,10.30
2022-10-11T15:42:34.580Z,9.02
2022-10-11T15:45:24.040Z,7.72
2022-10-11T15:48:15.251Z,10.68
2022-10-11T15:51:00.533Z,9.23
2022-10-11T15:53:46.424Z,8.10
2022-10-11T15:56:33.914Z,8.95
2022-10-11T15:59:19.364Z,9.55
2022-10-11T16:02:04.849Z,6.03
2022-10-11T16:04:50.021Z,7.93
2022-10-11T16:07:35.661Z,9.73
2022-10-11T16:10:21.504Z,9.35
2022-10-11T16:13:08.204Z,8.10
2022-10-11T16:15:53.681Z,7.57
2022-10-11T16:18:39.102Z,11.70
2022-10-11T16:21:24.748Z,6.35
2022-10-11T16:24:09.854Z,8.38
2022-10-11T16:26:55.498Z,12.95
2022-10-11T16:29:41.154Z,6.93
2022-10-11T16:32:27.442Z,9.60
2022-10-11T16:35:15.003Z,6.90
2022-10-11T16:38:01.235Z,7.18
2022-10-11T16:40:46.888Z,12.85
2022-10-11T16:43:32.563Z,8.55
2022-10-11T16:46:18.999Z,10.93
2022-10-11T16:49:05.106Z,14.30
2022-10-11T16:51:51.522Z,11.02
2022-10-11T16:54:38.325Z,11.82
2022-10-11T16:57:23.880Z,9.73
2022-10-11T17:00:10.382Z,17.20
2022-10-11T17:02:55.992Z,8.43
2022-10-11T17:05:41.541Z,11.15
2022-10-11T17:08:27.072Z,10.35
2022-10-11T17:11:12.674Z,8.93
2022-10-11T17:14:00.608Z,8.60
2022-10-11T17:16:46.168Z,8.52
2022-10-11T17:19:31.935Z,8.70
2022-10-11T17:22:19.340Z,9.38
2022-10-11T17:25:05.588Z,10.48
2022-10-11T17:27:51.220Z,11.70
2022-10-11T17:30:38.217Z,12.05
2022-10-11T17:33:26.256Z,11.10
2022-10-11T17:36:34.067Z,11.35
2022-10-11T17:39:22.375Z,14.77
2022-10-11T17:42:08.642Z,10.68
2022-10-11T17:44:54.102Z,11.73
2022-10-11T17:47:39.453Z,13.60
2022-10-11T17:50:24.709Z,14.20
2022-10-11T17:53:10.301Z,12.60
2022-10-11T17:55:58.997Z,10.50
2022-10-11T17:58:45.399Z,14.23
2022-10-11T18:01:30.734Z,13.20
2022-10-11T18:04:19.697Z,13.27
2022-10-11T18:07:04.951Z,13.20
2022-10-11T18:09:50.574Z,12.95
2022-10-11T18:12:36.154Z,11.73
2022-10-11T18:15:22.307Z,13.82
2022-10-11T18:18:07.718Z,10.70
2022-10-11T18:20:53.295Z,16.20
2022-10-11T18:23:41.115Z,13.70
2022-10-11T18:26:30.476Z,10.60
2022-10-11T18:29:16.802Z,16.08
2022-10-11T18:32:02.342Z,14.35
2022-10-11T18:34:47.922Z,14.18
2022-10-11T18:37:33.556Z,11.73
2022-10-11T18:40:18.891Z,10.70
2022-10-11T18:43:04.920Z,13.85
2022-10-11T18:45:50.476Z,14.13
2022-10-11T18:48:36.792Z,12.20
2022-10-11T18:51:28.264Z,15.25
2022-10-11T18:54:16.945Z,15.52
2022-10-11T18:57:05.875Z,10.38
2022-10-11T18:59:51.395Z,11.02
2022-10-11T19:02:36.951Z,11.18
2022-10-11T19:05:22.320Z,12.15
2022-10-11T19:08:07.794Z,13.43
2022-10-11T19:10:53.151Z,13.10
2022-10-11T19:13:39.572Z,11.93
2022-10-11T19:16:26.706Z,10.93
2022-10-11T19:19:13.216Z,10.10
2022-10-11T19:21:59.929Z,10.57
2022-10-11T19:24:45.819Z,10.40
2022-10-11T19:27:31.085Z,17.05
2022-10-11T19:30:16.646Z,12.63
2022-10-11T19:33:04.678Z,13.63
2022-10-11T19:35:54.850Z,13.73
2022-10-11T19:38:44.322Z,9.32
2022-10-11T19:41:30.327Z,17.83
2022-10-11T19:44:16.379Z,12.90
2022-10-11T19:47:05.276Z,11.30
2022-10-11T19:49:50.664Z,19.15
2022-10-11T19:52:36.242Z,15.48
2022-10-11T19:55:21.661Z,15.57
2022-10-11T19:58:08.367Z,21.73
2022-10-11T20:01:12.154Z,15.63
2022-10-11T20:04:06.104Z,12.80
2022-10-11T20:06:51.266Z,12.90
2022-10-11T20:09:36.872Z,16.13
2022-10-11T20:12:22.239Z,18.27
2022-10-11T20:15:08.391Z,15.82
2022-10-11T20:17:53.707Z,13.55
2022-10-11T20:20:39.199Z,15.40
2022-10-11T20:23:27.625Z,12.93
2022-10-11T20:26:14.454Z,18.45
2022-10-11T20:28:59.693Z,19.48
2022-10-11T20:31:45.235Z,18.20
2022-10-11T20:34:31.118Z,17.80
2022-10-11T20:37:16.581Z,14.77
2022-10-11T20:40:03.559Z,18.73
2022-10-11T20:42:48.986Z,16.20
2022-10-11T20:45:34.437Z,19.20
2022-10-11T20:48:20.022Z,23.27
2022-10-11T20:51:07.170Z,19.63
2022-10-11T20:53:53.531Z,20.08
2022-10-11T20:56:39.645Z,21.65
2022-10-11T20:59:25.210Z,18.30
2022-10-11T21:02:12.606Z,17.38
2022-10-11T21:05:01.038Z,19.58
2022-10-11T21:07:46.545Z,24.80
2022-10-11T21:10:32.297Z,15.55
2022-10-11T21:13:17.586Z,18.02
2022-10-11T21:16:07.028Z,14.90
2022-10-11T21:18:53.972Z,18.58
2022-10-11T21:21:39.381Z,19.33
2022-10-11T21:24:24.770Z,18.55
2022-10-11T21:27:10.314Z,17.45
2022-10-11T21:29:55.531Z,17.65
2022-10-11T21:32:41.210Z,18.02
2022-10-11T21:35:27.903Z,13.27
2022-10-11T21:38:13.393Z,18.75
2022-10-11T21:40:58.669Z,16.55
2022-10-11T21:43:44.524Z,16.65
2022-10-11T21:49:37.173Z,18.20
2022-10-11T21:52:22.510Z,19.45
2022-10-11T21:55:08.152Z,14.48
2022-10-11T21:57:53.429Z,15.23
2022-10-11T22:00:39.247Z,19.70
2022-10-11T22:03:26.360Z,13.93
2022-10-11T22:06:12.846Z,19.08
2022-10-11T22:08:58.534Z,16.70
2022-10-11T22:11:44.107Z,15.27
2022-10-11T22:14:30.450Z,14.40
2022-10-11T22:17:15.700Z,15.15
2022-10-11T22:20:01.070Z,20.52
2022-10-11T22:22:46.415Z,11.68
2022-10-11T22:25:35.591Z,18.80
2022-10-11T22:28:21.321Z,15.93
2022-10-11T22:31:07.979Z,15.43
2022-10-11T22:33:55.489Z,16.52
2022-10-11T22:36:41.235Z,15.13
2022-10-11T22:39:26.484Z,16.08
2022-10-11T22:42:12.072Z,14.32
2022-10-11T22:44:57.651Z,14.60
2022-10-11T22:47:43.184Z,13.80
2022-10-11T22:50:28.899Z,20.63
2022-10-11T22:53:14.929Z,14.60
2022-10-11T22:56:00.407Z,16.55
2022-10-11T22:58:46.026Z,14.30
2022-10-11T23:01:31.959Z,17.85
2022-10-11T23:04:17.759Z,19.65
2022-10-11T23:07:05.117Z,17.00
2022-10-11T23:09:50.735Z,15.50
2022-10-11T23:12:36.535Z,14.93
2022-10-11T23:15:21.696Z,18.92
2022-10-11T23:18:07.148Z,11.73
2022-10-11T23:20:52.757Z,14.10
2022-10-11T23:23:39.769Z,17.25
2022-10-11T23:26:25.485Z,15.75
2022-10-11T23:29:10.731Z,17.25
2022-10-11T23:31:56.436Z,14.82
2022-10-11T23:34:41.992Z,20.17
2022-10-11T23:37:27.230Z,18.08
2022-10-11T23:40:12.928Z,17.20
2022-10-11T23:42:58.127Z,16.48
2022-10-11T23:45:44.369Z,17.75
2022-10-11T23:48:29.766Z,17.02
2022-10-11T23:51:15.030Z,18.05
2022-10-11T23:54:00.531Z,14.32
2022-10-11T23:56:45.898Z,13.82
2022-10-11T23:59:31.436Z,17.50
